sensor_id;sensor_type;location;lat;lon;timestamp;pressure;altitude;pressure_sealevel;temperature;humidity
11053;BME280;55230;42.602;23.470;2022-10-16T00:00:38;94129.56;;;8.18;100.00
11053;BME280;55230;42.602;23.470;2022-10-16T00:03:06;94139.06;;;8.03;100.00
11053;BME280;55230;42.602;23.470;2022-10-16T00:05:38;94127.00;;;8.11;100.00
11053;BME280;55230;42.602;23.470;2022-10-16T00:08:05;94139.06;;;8.03;100.00
11053;BME280;55230;42.602;23.470;2022-10-16T00:10:32;94138.06;;;7.78;100.00
11053;BME280;55230;42.602;23.470;2022-10-16T00:13:01;94166.75;;;7.81;100.00
11053;BME280;55230;42.602;23.470;2022-10-16T00:15:27;94155.81;;;7.91;100.00
11053;BME280;55230;42.602;23.470;2022-10-16T00:17:54;94054.94;;;7.12;100.00
11053;BME280;55230;42.602;23.470;2022-10-16T00:20:21;94137.78;;;7.92;100.00
11053;BME280;55230;42.602;23.470;2022-10-16T00:22:48;94143.28;;;7.85;100.00
11053;BME280;55230;42.602;23.470;2022-10-16T00:25:14;94154.09;;;7.81;100.00
11053;BME280;55230;42.602;23.470;2022-10-16T00:27:41;94100.00;;;7.21;100.00
11053;BME280;55230;42.602;23.470;2022-10-16T00:30:10;94141.19;;;7.53;100.00
11053;BME280;55230;42.602;23.470;2022-10-16T00:32:37;94149.81;;;7.64;100.00
11053;BME280;55230;42.602;23.470;2022-10-16T00:35:04;93878.81;;;5.84;100.00
11053;BME280;55230;42.602;23.470;2022-10-16T00:37:31;94152.22;;;7.59;100.00
11053;BME280;55230;42.602;23.470;2022-10-16T00:39:58;94126.88;;;7.40;100.00
11053;BME280;55230;42.602;23.470;2022-10-16T00:42:25;94163.19;;;7.45;100.00
11053;BME280;55230;42.602;23.470;2022-10-16T00:44:53;94155.69;;;7.36;100.00
11053;BME280;55230;42.602;23.470;2022-10-16T00:47:26;94158.78;;;7.35;100.00
11053;BME280;55230;42.602;23.470;2022-10-16T00:49:59;94162.91;;;7.39;100.00
11053;BME280;55230;42.602;23.470;2022-10-16T00:52:26;94162.56;;;7.14;100.00
11053;BME280;55230;42.602;23.470;2022-10-16T00:54:54;94160.69;;;7.34;100.00
11053;BME280;55230;42.602;23.470;2022-10-16T00:57:22;94107.38;;;6.93;100.00
11053;BME280;55230;42.602;23.470;2022-10-16T00:59:49;94170.31;;;7.32;100.00
11053;BME280;55230;42.602;23.470;2022-10-16T01:02:16;94164.19;;;7.31;100.00
11053;BME280;55230;42.602;23.470;2022-10-16T01:04:46;94170.31;;;7.32;100.00
11053;BME280;55230;42.602;23.470;2022-10-16T01:07:18;94169.56;;;7.31;100.00
11053;BME280;55230;42.602;23.470;2022-10-16T01:09:57;94167.63;;;7.32;100.00
11053;BME280;55230;42.602;23.470;2022-10-16T01:12:33;94173.06;;;7.28;100.00
11053;BME280;55230;42.602;23.470;2022-10-16T01:15:08;93985.66;;;5.99;100.00
11053;BME280;55230;42.602;23.470;2022-10-16T01:17:42;94009.19;;;6.11;100.00
11053;BME280;55230;42.602;23.470;2022-10-16T01:20:16;94181.22;;;7.21;100.00
11053;BME280;55230;42.602;23.470;2022-10-16T01:23:00;94179.81;;;7.13;100.00
11053;BME280;55230;42.602;23.470;2022-10-16T01:25:37;94133.41;;;6.93;100.00
11053;BME280;55230;42.602;23.470;2022-10-16T01:28:09;94166.75;;;7.15;100.00
11053;BME280;55230;42.602;23.470;2022-10-16T01:30:39;94109.03;;;6.84;100.00
11053;BME280;55230;42.602;23.470;2022-10-16T01:33:11;93578.53;;;3.05;100.00
11053;BME280;55230;42.602;23.470;2022-10-16T01:35:42;94129.75;;;7.07;100.00
11053;BME280;55230;42.602;23.470;2022-10-16T01:38:16;94205.69;;;7.23;100.00
11053;BME280;55230;42.602;23.470;2022-10-16T01:40:47;93614.38;;;3.65;100.00
11053;BME280;55230;42.602;23.470;2022-10-16T01:43:20;94164.19;;;7.31;100.00
11053;BME280;55230;42.602;23.470;2022-10-16T01:45:49;94099.59;;;6.99;100.00
11053;BME280;55230;42.602;23.470;2022-10-16T01:48:18;94150.38;;;7.33;100.00
11053;BME280;55230;42.602;23.470;2022-10-16T01:50:54;94143.03;;;7.37;100.00
11053;BME280;55230;42.602;23.470;2022-10-16T01:53:22;94098.09;;;7.21;100.00
11053;BME280;55230;42.602;23.470;2022-10-16T01:55:52;93549.34;;;3.59;100.00
11053;BME280;55230;42.602;23.470;2022-10-16T01:58:23;94192.69;;;7.68;100.00
11053;BME280;55230;42.602;23.470;2022-10-16T02:00:52;94172.00;;;8.07;100.00
11053;BME280;55230;42.602;23.470;2022-10-16T02:03:21;94110.44;;;7.77;100.00
11053;BME280;55230;42.602;23.470;2022-10-16T02:05:51;94164.63;;;8.31;100.00
11053;BME280;55230;42.602;23.470;2022-10-16T02:08:19;94083.72;;;7.70;100.00
11053;BME280;55230;42.602;23.470;2022-10-16T02:10:47;94167.81;;;8.26;100.00
11053;BME280;55230;42.602;23.470;2022-10-16T02:13:17;94170.78;;;8.32;100.00
11053;BME280;55230;42.602;23.470;2022-10-16T02:15:48;94146.00;;;8.20;100.00
11053;BME280;55230;42.602;23.470;2022-10-16T02:18:15;94180.97;;;8.40;100.00
11053;BME280;55230;42.602;23.470;2022-10-16T02:20:48;94185.91;;;8.42;99.98
11053;BME280;55230;42.602;23.470;2022-10-16T02:23:20;93942.50;;;6.62;99.27
11053;BME280;55230;42.602;23.470;2022-10-16T02:25:50;94192.03;;;8.23;100.00
11053;BME280;55230;42.602;23.470;2022-10-16T02:28:22;94192.59;;;8.14;100.00
11053;BME280;55230;42.602;23.470;2022-10-16T02:30:55;94089.97;;;7.44;100.00
11053;BME280;55230;42.602;23.470;2022-10-16T02:33:24;94196.56;;;8.06;100.00
11053;BME280;55230;42.602;23.470;2022-10-16T02:35:52;94186.66;;;7.83;100.00
11053;BME280;55230;42.602;23.470;2022-10-16T02:38:21;94196.91;;;7.88;100.00
11053;BME280;55230;42.602;23.470;2022-10-16T02:40:49;93751.13;;;4.89;100.00
11053;BME280;55230;42.602;23.470;2022-10-16T02:43:16;94198.25;;;7.77;100.00
11053;BME280;55230;42.602;23.470;2022-10-16T02:45:43;94286.69;;;7.64;100.00
11053;BME280;55230;42.602;23.470;2022-10-16T02:48:11;94196.13;;;7.68;100.00
11053;BME280;55230;42.602;23.470;2022-10-16T02:50:38;94079.78;;;6.93;100.00
11053;BME280;55230;42.602;23.470;2022-10-16T02:53:04;94200.81;;;7.64;100.00
11053;BME280;55230;42.602;23.470;2022-10-16T02:55:31;94093.38;;;6.82;100.00
11053;BME280;55230;42.602;23.470;2022-10-16T02:57:58;94210.22;;;7.30;100.00
11053;BME280;55230;42.602;23.470;2022-10-16T03:00:25;94205.84;;;7.39;100.00
11053;BME280;55230;42.602;23.470;2022-10-16T03:02:51;94107.97;;;6.55;100.00
11053;BME280;55230;42.602;23.470;2022-10-16T03:05:20;94162.44;;;6.71;100.00
11053;BME280;55230;42.602;23.470;2022-10-16T03:07:46;94031.03;;;5.75;100.00
11053;BME280;55230;42.602;23.470;2022-10-16T03:10:13;94211.88;;;6.97;100.00
11053;BME280;55230;42.602;23.470;2022-10-16T03:12:40;93866.47;;;4.17;100.00
11053;BME280;55230;42.602;23.470;2022-10-16T03:15:07;94213.22;;;6.82;100.00
11053;BME280;55230;42.602;23.470;2022-10-16T03:17:34;94212.22;;;6.72;100.00
11053;BME280;55230;42.602;23.470;2022-10-16T03:20:01;94211.09;;;6.70;100.00
11053;BME280;55230;42.602;23.470;2022-10-16T03:22:29;94210.41;;;6.66;100.00
11053;BME280;55230;42.602;23.470;2022-10-16T03:24:56;94212.72;;;6.64;100.00
11053;BME280;55230;42.602;23.470;2022-10-16T03:27:23;94211.19;;;6.63;100.00
11053;BME280;55230;42.602;23.470;2022-10-16T03:29:49;94207.47;;;6.57;100.00
11053;BME280;55230;42.602;23.470;2022-10-16T03:32:16;94165.97;;;6.12;100.00
11053;BME280;55230;42.602;23.470;2022-10-16T03:34:43;94228.22;;;6.49;100.00
11053;BME280;55230;42.602;23.470;2022-10-16T03:37:10;94211.50;;;6.42;100.00
11053;BME280;55230;42.602;23.470;2022-10-16T03:39:38;94216.09;;;6.41;100.00
11053;BME280;55230;42.602;23.470;2022-10-16T03:42:05;94209.19;;;6.40;100.00
11053;BME280;55230;42.602;23.470;2022-10-16T03:44:32;94217.63;;;6.39;100.00
11053;BME280;55230;42.602;23.470;2022-10-16T03:46:59;94217.97;;;6.44;100.00
11053;BME280;55230;42.602;23.470;2022-10-16T03:49:25;94204.59;;;6.41;100.00
11053;BME280;55230;42.602;23.470;2022-10-16T03:51:52;94212.28;;;6.39;100.00
11053;BME280;55230;42.602;23.470;2022-10-16T03:54:19;94196.47;;;6.21;100.00
11053;BME280;55230;42.602;23.470;2022-10-16T03:56:48;94212.00;;;6.33;100.00
11053;BME280;55230;42.602;23.470;2022-10-16T03:59:15;94036.41;;;5.12;100.00
11053;BME280;55230;42.602;23.470;2022-10-16T04:01:42;94046.13;;;4.95;100.00
11053;BME280;55230;42.602;23.470;2022-10-16T04:04:09;94191.97;;;6.11;100.00
11053;BME280;55230;42.602;23.470;2022-10-16T04:06:35;94210.78;;;6.38;100.00
11053;BME280;55230;42.602;23.470;2022-10-16T04:09:02;94075.88;;;5.34;100.00
11053;BME280;55230;42.602;23.470;2022-10-16T04:11:29;94230.66;;;6.37;100.00
11053;BME280;55230;42.602;23.470;2022-10-16T04:13:57;94216.84;;;6.42;100.00
11053;BME280;55230;42.602;23.470;2022-10-16T04:16:24;94216.50;;;6.40;100.00
11053;BME280;55230;42.602;23.470;2022-10-16T04:18:51;94187.09;;;6.03;100.00
11053;BME280;55230;42.602;23.470;2022-10-16T04:21:17;94215.31;;;6.41;100.00
11053;BME280;55230;42.602;23.470;2022-10-16T04:23:44;94213.00;;;6.43;100.00
11053;BME280;55230;42.602;23.470;2022-10-16T04:26:11;94202.56;;;6.22;100.00
11053;BME280;55230;42.602;23.470;2022-10-16T04:28:38;94211.78;;;6.47;100.00
11053;BME280;55230;42.602;23.470;2022-10-16T04:31:07;94092.59;;;5.75;100.00
11053;BME280;55230;42.602;23.470;2022-10-16T04:33:33;94214.41;;;6.51;100.00
11053;BME280;55230;42.602;23.470;2022-10-16T04:36:01;94226.94;;;6.31;100.00
11053;BME280;55230;42.602;23.470;2022-10-16T04:38:29;94254.88;;;6.30;100.00
11053;BME280;55230;42.602;23.470;2022-10-16T04:40:56;94226.03;;;6.41;100.00
11053;BME280;55230;42.602;23.470;2022-10-16T04:43:23;94160.06;;;5.94;100.00
11053;BME280;55230;42.602;23.470;2022-10-16T04:45:49;94237.84;;;6.47;100.00
11053;BME280;55230;42.602;23.470;2022-10-16T04:48:18;94244.81;;;6.37;100.00
11053;BME280;55230;42.602;23.470;2022-10-16T04:50:45;94194.44;;;5.99;100.00
11053;BME280;55230;42.602;23.470;2022-10-16T04:53:12;94239.16;;;6.32;100.00
11053;BME280;55230;42.602;23.470;2022-10-16T04:55:39;94153.69;;;5.80;100.00
11053;BME280;55230;42.602;23.470;2022-10-16T04:58:06;94240.25;;;6.38;100.00
11053;BME280;55230;42.602;23.470;2022-10-16T05:00:32;94096.72;;;5.50;100.00
11053;BME280;55230;42.602;23.470;2022-10-16T05:02:59;94246.16;;;6.52;100.00
11053;BME280;55230;42.602;23.470;2022-10-16T05:05:28;94024.25;;;5.07;100.00
11053;BME280;55230;42.602;23.470;2022-10-16T05:07:54;94249.97;;;6.55;100.00
11053;BME280;55230;42.602;23.470;2022-10-16T05:10:21;94257.59;;;6.56;100.00
11053;BME280;55230;42.602;23.470;2022-10-16T05:12:48;94259.31;;;6.43;100.00
11053;BME280;55230;42.602;23.470;2022-10-16T05:15:15;94262.50;;;6.61;100.00
11053;BME280;55230;42.602;23.470;2022-10-16T05:17:42;94272.38;;;6.68;100.00
11053;BME280;55230;42.602;23.470;2022-10-16T05:20:09;94226.75;;;6.45;100.00
11053;BME280;55230;42.602;23.470;2022-10-16T05:22:37;94276.22;;;6.97;100.00
11053;BME280;55230;42.602;23.470;2022-10-16T05:25:04;94092.22;;;5.73;100.00
11053;BME280;55230;42.602;23.470;2022-10-16T05:27:31;94274.03;;;7.15;100.00
11053;BME280;55230;42.602;23.470;2022-10-16T05:29:58;94200.53;;;6.59;100.00
11053;BME280;55230;42.602;23.470;2022-10-16T05:32:24;94004.03;;;5.36;100.00
11053;BME280;55230;42.602;23.470;2022-10-16T05:34:51;94289.22;;;6.98;100.00
11053;BME280;55230;42.602;23.470;2022-10-16T05:37:18;93801.47;;;4.00;100.00
11053;BME280;55230;42.602;23.470;2022-10-16T05:39:46;94290.28;;;7.31;100.00
11053;BME280;55230;42.602;23.470;2022-10-16T05:42:13;94310.97;;;7.57;100.00
11053;BME280;55230;42.602;23.470;2022-10-16T05:44:39;94282.97;;;7.81;100.00
11053;BME280;55230;42.602;23.470;2022-10-16T05:47:06;94246.81;;;7.63;100.00
11053;BME280;55230;42.602;23.470;2022-10-16T05:49:33;94218.91;;;7.60;100.00
11053;BME280;55230;42.602;23.470;2022-10-16T05:52:00;94296.28;;;8.31;100.00
11053;BME280;55230;42.602;23.470;2022-10-16T05:54:27;94112.78;;;6.90;100.00
11053;BME280;55230;42.602;23.470;2022-10-16T05:56:55;94250.97;;;7.67;100.00
11053;BME280;55230;42.602;23.470;2022-10-16T05:59:21;94295.22;;;7.82;100.00
11053;BME280;55230;42.602;23.470;2022-10-16T06:01:48;94295.63;;;8.04;100.00
11053;BME280;55230;42.602;23.470;2022-10-16T06:04:15;94313.81;;;8.16;100.00
11053;BME280;55230;42.602;23.470;2022-10-16T06:06:42;94298.28;;;8.27;100.00
11053;BME280;55230;42.602;23.470;2022-10-16T06:09:10;93603.88;;;3.20;100.00
11053;BME280;55230;42.602;23.470;2022-10-16T06:11:37;94146.47;;;6.91;100.00
11053;BME280;55230;42.602;23.470;2022-10-16T06:14:05;93949.53;;;5.57;100.00
11053;BME280;55230;42.602;23.470;2022-10-16T06:16:33;94207.00;;;7.15;100.00
11053;BME280;55230;42.602;23.470;2022-10-16T06:19:00;93813.59;;;4.38;100.00
11053;BME280;55230;42.602;23.470;2022-10-16T06:21:28;94325.03;;;7.88;100.00
11053;BME280;55230;42.602;23.470;2022-10-16T06:23:56;94329.34;;;7.82;100.00
11053;BME280;55230;42.602;23.470;2022-10-16T06:26:25;94388.03;;;7.83;100.00
11053;BME280;55230;42.602;23.470;2022-10-16T06:28:53;94284.47;;;7.82;100.00
11053;BME280;55230;42.602;23.470;2022-10-16T06:31:22;94321.06;;;7.96;100.00
11053;BME280;55230;42.602;23.470;2022-10-16T06:33:53;94207.81;;;7.58;100.00
11053;BME280;55230;42.602;23.470;2022-10-16T06:36:20;94298.78;;;8.42;100.00
11053;BME280;55230;42.602;23.470;2022-10-16T06:38:47;94258.50;;;8.18;100.00
11053;BME280;55230;42.602;23.470;2022-10-16T06:41:17;94183.97;;;7.83;100.00
11053;BME280;55230;42.602;23.470;2022-10-16T06:43:46;94348.53;;;8.89;100.00
11053;BME280;55230;42.602;23.470;2022-10-16T06:46:16;93683.28;;;4.30;100.00
11053;BME280;55230;42.602;23.470;2022-10-16T06:48:44;94084.09;;;7.10;100.00
11053;BME280;55230;42.602;23.470;2022-10-16T06:51:13;94358.28;;;9.02;100.00
11053;BME280;55230;42.602;23.470;2022-10-16T06:53:42;94363.50;;;9.09;100.00
11053;BME280;55230;42.602;23.470;2022-10-16T06:56:10;94336.44;;;9.16;100.00
11053;BME280;55230;42.602;23.470;2022-10-16T06:58:37;94372.59;;;9.35;100.00
11053;BME280;55230;42.602;23.470;2022-10-16T07:01:05;94354.13;;;9.69;99.82
11053;BME280;55230;42.602;23.470;2022-10-16T07:03:32;94378.63;;;9.91;96.18
11053;BME280;55230;42.602;23.470;2022-10-16T07:06:03;94372.34;;;9.97;96.25
11053;BME280;55230;42.602;23.470;2022-10-16T07:08:31;94326.59;;;9.62;95.15
11053;BME280;55230;42.602;23.470;2022-10-16T07:10:59;94379.25;;;10.14;95.75
11053;BME280;55230;42.602;23.470;2022-10-16T07:13:26;94383.44;;;9.99;96.25
11053;BME280;55230;42.602;23.470;2022-10-16T07:15:53;94379.06;;;10.05;95.09
11053;BME280;55230;42.602;23.470;2022-10-16T07:18:20;94395.72;;;9.84;96.38
11053;BME280;55230;42.602;23.470;2022-10-16T07:20:47;94383.03;;;10.33;96.35
11053;BME280;55230;42.602;23.470;2022-10-16T07:23:15;93998.00;;;8.15;92.84
11053;BME280;55230;42.602;23.470;2022-10-16T07:25:42;94333.88;;;10.58;91.62
11053;BME280;55230;42.602;23.470;2022-10-16T07:28:08;94388.19;;;11.01;91.41
11053;BME280;55230;42.602;23.470;2022-10-16T07:30:35;94385.91;;;10.99;93.94
11053;BME280;55230;42.602;23.470;2022-10-16T07:33:03;94299.66;;;10.10;92.62
11053;BME280;55230;42.602;23.470;2022-10-16T07:35:30;94394.06;;;10.83;93.14
11053;BME280;55230;42.602;23.470;2022-10-16T07:37:56;94361.13;;;11.04;91.44
11053;BME280;55230;42.602;23.470;2022-10-16T07:40:25;94404.13;;;11.24;89.79
11053;BME280;55230;42.602;23.470;2022-10-16T07:42:52;94405.03;;;11.33;89.55
11053;BME280;55230;42.602;23.470;2022-10-16T07:45:19;94396.28;;;11.42;88.58
11053;BME280;55230;42.602;23.470;2022-10-16T07:47:46;94343.63;;;11.09;86.98
11053;BME280;55230;42.602;23.470;2022-10-16T07:50:12;94414.41;;;11.83;84.23
11053;BME280;55230;42.602;23.470;2022-10-16T07:52:39;94405.66;;;12.16;82.64
11053;BME280;55230;42.602;23.470;2022-10-16T07:55:07;94360.03;;;11.68;85.26
11053;BME280;55230;42.602;23.470;2022-10-16T07:57:35;94412.88;;;11.69;85.61
11053;BME280;55230;42.602;23.470;2022-10-16T08:00:02;94331.56;;;11.38;84.07
11053;BME280;55230;42.602;23.470;2022-10-16T08:02:29;94410.28;;;12.03;82.98
11053;BME280;55230;42.602;23.470;2022-10-16T08:04:56;94409.75;;;12.08;80.95
11053;BME280;55230;42.602;23.470;2022-10-16T08:07:23;94262.09;;;11.39;79.49
11053;BME280;55230;42.602;23.470;2022-10-16T08:09:49;94354.16;;;12.07;78.41
11053;BME280;55230;42.602;23.470;2022-10-16T08:12:17;94415.19;;;12.55;77.57
11053;BME280;55230;42.602;23.470;2022-10-16T08:14:46;94360.75;;;12.19;77.34
11053;BME280;55230;42.602;23.470;2022-10-16T08:17:14;94367.81;;;12.50;76.23
11053;BME280;55230;42.602;23.470;2022-10-16T08:19:44;94414.53;;;12.63;76.79
11053;BME280;55230;42.602;23.470;2022-10-16T08:22:11;94406.53;;;12.60;76.47
11053;BME280;55230;42.602;23.470;2022-10-16T08:24:38;94409.97;;;12.73;76.74
11053;BME280;55230;42.602;23.470;2022-10-16T08:27:05;94365.69;;;12.67;74.78
11053;BME280;55230;42.602;23.470;2022-10-16T08:29:32;94417.59;;;13.43;72.58
11053;BME280;55230;42.602;23.470;2022-10-16T08:32:00;94429.53;;;13.76;72.21
11053;BME280;55230;42.602;23.470;2022-10-16T08:34:27;94414.63;;;13.80;67.68
11053;BME280;55230;42.602;23.470;2022-10-16T08:36:53;94407.72;;;13.79;64.96
11053;BME280;55230;42.602;23.470;2022-10-16T08:39:20;94417.56;;;13.95;64.95
11053;BME280;55230;42.602;23.470;2022-10-16T08:42:20;94401.00;;;13.93;66.52
11053;BME280;55230;42.602;23.470;2022-10-16T08:45:06;94405.97;;;14.34;63.51
11053;BME280;55230;42.602;23.470;2022-10-16T08:47:44;94409.25;;;13.89;63.95
11053;BME280;55230;42.602;23.470;2022-10-16T08:50:23;94410.56;;;13.76;65.67
11053;BME280;55230;42.602;23.470;2022-10-16T08:52:51;94397.38;;;13.87;65.25
11053;BME280;55230;42.602;23.470;2022-10-16T08:55:31;94411.47;;;14.52;64.43
11053;BME280;55230;42.602;23.470;2022-10-16T08:57:59;94425.50;;;14.69;58.75
11053;BME280;55230;42.602;23.470;2022-10-16T09:00:27;94419.00;;;14.48;59.95
11053;BME280;55230;42.602;23.470;2022-10-16T09:03:04;94418.88;;;14.21;61.19
11053;BME280;55230;42.602;23.470;2022-10-16T09:05:54;94419.75;;;14.09;61.91
11053;BME280;55230;42.602;23.470;2022-10-16T09:08:30;94353.31;;;13.74;61.87
11053;BME280;55230;42.602;23.470;2022-10-16T09:11:07;94403.31;;;14.43;63.32
11053;BME280;55230;42.602;23.470;2022-10-16T09:13:46;94393.84;;;14.93;62.74
11053;BME280;55230;42.602;23.470;2022-10-16T09:16:18;94403.63;;;14.54;59.90
11053;BME280;55230;42.602;23.470;2022-10-16T09:18:54;94331.91;;;14.16;63.87
11053;BME280;55230;42.602;23.470;2022-10-16T09:21:26;94410.47;;;15.04;59.43
11053;BME280;55230;42.602;23.470;2022-10-16T09:23:57;94268.25;;;13.80;59.31
11053;BME280;55230;42.602;23.470;2022-10-16T09:26:24;94416.66;;;14.86;60.60
11053;BME280;55230;42.602;23.470;2022-10-16T09:28:52;94408.63;;;14.56;61.53
11053;BME280;55230;42.602;23.470;2022-10-16T09:31:20;94169.44;;;13.06;59.92
11053;BME280;55230;42.602;23.470;2022-10-16T09:33:52;94404.59;;;14.78;60.41
11053;BME280;55230;42.602;23.470;2022-10-16T09:36:20;94417.41;;;14.78;59.96
11053;BME280;55230;42.602;23.470;2022-10-16T09:38:49;94388.28;;;14.96;60.71
11053;BME280;55230;42.602;23.470;2022-10-16T09:41:21;94396.88;;;15.49;61.22
11053;BME280;55230;42.602;23.470;2022-10-16T09:43:52;94400.53;;;15.88;59.92
11053;BME280;55230;42.602;23.470;2022-10-16T09:46:26;94389.81;;;16.26;59.98
11053;BME280;55230;42.602;23.470;2022-10-16T09:48:57;94370.19;;;16.22;56.63
11053;BME280;55230;42.602;23.470;2022-10-16T09:51:27;94393.75;;;16.25;57.13
11053;BME280;55230;42.602;23.470;2022-10-16T09:53:56;94391.84;;;15.66;60.25
11053;BME280;55230;42.602;23.470;2022-10-16T09:56:25;94381.97;;;14.99;62.42
11053;BME280;55230;42.602;23.470;2022-10-16T09:58:53;94381.31;;;15.23;63.73
11053;BME280;55230;42.602;23.470;2022-10-16T10:01:21;94399.13;;;15.33;62.06
11053;BME280;55230;42.602;23.470;2022-10-16T10:03:49;94326.41;;;14.91;62.48
11053;BME280;55230;42.602;23.470;2022-10-16T10:06:22;94379.78;;;15.67;60.77
11053;BME280;55230;42.602;23.470;2022-10-16T10:08:58;94334.38;;;15.40;58.91
11053;BME280;55230;42.602;23.470;2022-10-16T10:11:56;94357.75;;;15.56;58.72
11053;BME280;55230;42.602;23.470;2022-10-16T10:14:25;94373.41;;;15.79;59.76
11053;BME280;55230;42.602;23.470;2022-10-16T10:17:09;94373.19;;;15.91;59.55
11053;BME280;55230;42.602;23.470;2022-10-16T10:19:39;94377.56;;;16.31;58.55
11053;BME280;55230;42.602;23.470;2022-10-16T10:22:16;94377.72;;;16.27;56.88
11053;BME280;55230;42.602;23.470;2022-10-16T10:24:44;94382.25;;;15.97;55.43
11053;BME280;55230;42.602;23.470;2022-10-16T10:27:15;94376.53;;;16.19;55.52
11053;BME280;55230;42.602;23.470;2022-10-16T10:29:51;94376.53;;;16.19;53.59
11053;BME280;55230;42.602;23.470;2022-10-16T10:32:27;94371.69;;;16.23;53.35
11053;BME280;55230;42.602;23.470;2022-10-16T10:35:11;94368.84;;;16.50;51.45
11053;BME280;55230;42.602;23.470;2022-10-16T10:38:04;94367.66;;;16.51;51.11
11053;BME280;55230;42.602;23.470;2022-10-16T10:40:43;94360.97;;;16.52;50.19
11053;BME280;55230;42.602;23.470;2022-10-16T10:43:24;94361.75;;;16.44;48.87
11053;BME280;55230;42.602;23.470;2022-10-16T10:45:58;94245.34;;;15.59;49.70
11053;BME280;55230;42.602;23.470;2022-10-16T10:48:47;94364.16;;;16.18;48.87
11053;BME280;55230;42.602;23.470;2022-10-16T10:51:23;94366.91;;;16.09;49.03
11053;BME280;55230;42.602;23.470;2022-10-16T10:54:03;94282.84;;;15.55;47.18
11053;BME280;55230;42.602;23.470;2022-10-16T10:56:42;94294.75;;;15.90;48.25
11053;BME280;55230;42.602;23.470;2022-10-16T10:59:28;94365.75;;;16.34;45.73
11053;BME280;55230;42.602;23.470;2022-10-16T11:02:00;94253.94;;;15.66;46.54
11053;BME280;55230;42.602;23.470;2022-10-16T11:04:36;94352.69;;;16.47;44.63
11053;BME280;55230;42.602;23.470;2022-10-16T11:07:10;94343.88;;;16.75;44.99
11053;BME280;55230;42.602;23.470;2022-10-16T11:09:45;94325.16;;;16.68;43.63
11053;BME280;55230;42.602;23.470;2022-10-16T11:12:17;94341.88;;;16.99;43.35
11053;BME280;55230;42.602;23.470;2022-10-16T11:14:50;94336.91;;;17.12;43.39
11053;BME280;55230;42.602;23.470;2022-10-16T11:17:23;94344.59;;;16.99;42.02
11053;BME280;55230;42.602;23.470;2022-10-16T11:19:54;94341.88;;;16.99;41.64
11053;BME280;55230;42.602;23.470;2022-10-16T11:22:27;94339.50;;;16.92;41.06
11053;BME280;55230;42.602;23.470;2022-10-16T11:25:02;94326.47;;;16.73;40.72
11053;BME280;55230;42.602;23.470;2022-10-16T11:27:36;94334.22;;;16.89;40.25
11053;BME280;55230;42.602;23.470;2022-10-16T11:30:11;94318.78;;;16.71;40.00
11053;BME280;55230;42.602;23.470;2022-10-16T11:33:00;94334.78;;;16.55;40.03
11053;BME280;55230;42.602;23.470;2022-10-16T11:35:37;94325.53;;;16.76;40.02
11053;BME280;55230;42.602;23.470;2022-10-16T11:38:10;94280.91;;;16.35;40.20
11053;BME280;55230;42.602;23.470;2022-10-16T11:40:45;94270.41;;;16.19;40.83
11053;BME280;55230;42.602;23.470;2022-10-16T11:43:20;94277.66;;;16.46;41.49
11053;BME280;55230;42.602;23.470;2022-10-16T11:45:50;94322.06;;;17.13;40.65
11053;BME280;55230;42.602;23.470;2022-10-16T11:48:24;94290.47;;;17.21;40.79
11053;BME280;55230;42.602;23.470;2022-10-16T11:50:54;94316.03;;;17.24;38.88
11053;BME280;55230;42.602;23.470;2022-10-16T11:53:37;94303.03;;;16.75;38.09
11053;BME280;55230;42.602;23.470;2022-10-16T11:56:07;94326.44;;;16.96;37.75
11053;BME280;55230;42.602;23.470;2022-10-16T11:58:39;93945.44;;;14.76;38.72
11053;BME280;55230;42.602;23.470;2022-10-16T12:01:17;94326.59;;;17.46;36.59
11053;BME280;55230;42.602;23.470;2022-10-16T12:03:50;94336.56;;;17.34;36.63
11053;BME280;55230;42.602;23.470;2022-10-16T12:06:28;94256.84;;;17.10;37.02
11053;BME280;55230;42.602;23.470;2022-10-16T12:08:58;94323.28;;;17.42;36.44
11053;BME280;55230;42.602;23.470;2022-10-16T12:11:36;94334.09;;;17.21;37.44
11053;BME280;55230;42.602;23.470;2022-10-16T12:14:06;94273.72;;;16.70;37.86
11053;BME280;55230;42.602;23.470;2022-10-16T12:16:33;94330.78;;;17.17;37.78
11053;BME280;55230;42.602;23.470;2022-10-16T12:19:19;94284.72;;;16.90;37.79
11053;BME280;55230;42.602;23.470;2022-10-16T12:21:46;94324.13;;;17.18;37.93
11053;BME280;55230;42.602;23.470;2022-10-16T12:24:38;94291.00;;;16.96;38.05
11053;BME280;55230;42.602;23.470;2022-10-16T12:27:22;94323.38;;;17.32;37.86
11053;BME280;55230;42.602;23.470;2022-10-16T12:29:54;94328.25;;;17.43;37.94
11053;BME280;55230;42.602;23.470;2022-10-16T12:32:28;94137.22;;;16.01;38.62
11053;BME280;55230;42.602;23.470;2022-10-16T12:34:56;94345.66;;;17.46;37.78
11053;BME280;55230;42.602;23.470;2022-10-16T12:37:26;94326.56;;;17.31;37.46
11053;BME280;55230;42.602;23.470;2022-10-16T12:39:55;94328.22;;;17.67;39.00
11053;BME280;55230;42.602;23.470;2022-10-16T12:42:32;94329.78;;;17.59;37.61
11053;BME280;55230;42.602;23.470;2022-10-16T12:45:00;94249.81;;;16.65;38.31
11053;BME280;55230;42.602;23.470;2022-10-16T12:47:46;94310.13;;;17.25;39.45
11053;BME280;55230;42.602;23.470;2022-10-16T12:50:26;94335.81;;;17.63;39.17
11053;BME280;55230;42.602;23.470;2022-10-16T12:52:54;94339.50;;;17.60;38.26
11053;BME280;55230;42.602;23.470;2022-10-16T12:55:22;94291.13;;;17.16;37.68
11053;BME280;55230;42.602;23.470;2022-10-16T12:58:09;94281.63;;;16.97;38.48
11053;BME280;55230;42.602;23.470;2022-10-16T13:00:44;94340.09;;;17.11;38.31
11053;BME280;55230;42.602;23.470;2022-10-16T13:03:30;94323.75;;;17.11;37.21
11053;BME280;55230;42.602;23.470;2022-10-16T13:06:14;94269.88;;;16.91;38.82